Time;durP1;ratioP1;P1;durP2;ratioP2;P2;SDS_P1;SDS_P2;PMS_P1;PMS_P2;Temp;Humidity;BMP_temperature;BMP_pressure;BME280_temperature;BME280_humidity;BME280_pressure;Samples;Min_cycle;Max_cycle;Signal;HPM_P1;HPM_P2
2022/11/04 00:02:05;;;;;;;2.03;2.03;;;10.10;99.90;10.10;99971.00;;;;5055687;28;20192;-75
2022/11/04 00:04:31;;;;;;;2.33;2.20;;;10.10;99.90;10.40;99984.00;;;;5037930;28;20327;-75
2022/11/04 00:06:57;;;;;;;2.20;2.20;;;10.10;99.90;10.70;99953.00;;;;5055969;28;20173;-75
2022/11/04 00:09:29;;;;;;;2.10;2.10;;;10.20;99.90;10.80;99980.00;;;;5037500;28;20184;-74
2022/11/04 00:17:18;;;;;;;2.90;2.80;;;10.40;99.90;11.20;99975.00;;;;4993786;28;20197;-75
2022/11/04 00:17:46;;;;;;;2.40;2.40;;;10.50;99.90;10.80;99989.00;;;;4993871;28;20208;-75
2022/11/04 00:28:43;;;;;;;2.80;2.70;;;10.40;99.90;10.90;99978.00;;;;5054847;28;20200;-75
2022/11/04 00:33:58;;;;;;;3.00;2.90;;;10.30;99.90;10.50;99970.00;;;;5054956;28;20182;-76
2022/11/04 00:36:25;;;;;;;3.00;2.90;;;10.20;99.90;10.30;99986.00;;;;5036964;28;20262;-76
2022/11/04 00:38:54;;;;;;;2.77;2.70;;;10.10;99.90;9.80;99950.00;;;;5037493;28;20188;-75
2022/11/04 00:41:26;;;;;;;2.30;2.30;;;10.00;99.90;10.30;99999.00;;;;5037374;28;20214;-75
2022/11/04 00:43:53;;;;;;;2.13;2.13;;;9.90;99.90;9.90;99997.00;;;;5038123;28;20183;-75
2022/11/04 00:46:22;;;;;;;2.20;2.20;;;9.80;99.90;9.80;100000.00;;;;5036809;28;20187;-75
2022/11/04 00:48:48;;;;;;;2.70;2.60;;;9.80;99.90;10.00;100001.00;;;;5037161;28;20159;-75
2022/11/04 00:51:18;;;;;;;2.33;2.33;;;9.80;99.90;9.70;100012.00;;;;5036755;28;20229;-75
2022/11/04 00:53:44;;;;;;;2.37;2.37;;;9.70;99.90;9.80;100005.00;;;;5054512;28;20182;-75
2022/11/04 00:56:10;;;;;;;2.10;2.10;;;9.70;99.90;9.70;99999.00;;;;5052304;28;20180;-75
2022/11/04 00:58:36;;;;;;;2.20;2.20;;;9.60;99.90;9.80;100017.00;;;;5054510;28;20221;-75
2022/11/04 01:01:29;;;;;;;2.20;2.20;;;9.60;99.90;9.60;100020.00;;;;5036664;28;20184;-75
2022/11/04 01:03:55;;;;;;;1.93;1.93;;;9.50;99.90;9.60;100020.00;;;;5038780;28;20187;-75
2022/11/04 01:06:24;;;;;;;1.77;1.77;;;9.50;99.90;9.60;100021.00;;;;5036787;28;20722;-75
2022/11/04 01:09:05;;;;;;;1.90;1.90;;;9.50;99.90;9.60;100007.00;;;;5036649;28;20610;-75
2022/11/04 01:11:34;;;;;;;1.80;1.80;;;9.50;99.90;9.80;100010.00;;;;5036018;28;20205;-75
2022/11/04 01:14:09;;;;;;;1.80;1.80;;;9.50;99.90;9.60;100022.00;;;;5036564;28;20267;-75
2022/11/04 01:16:35;;;;;;;1.70;1.70;;;9.60;99.90;9.60;100018.00;;;;5036944;28;20180;-75
2022/11/04 01:19:01;;;;;;;2.00;2.00;;;9.50;99.90;9.60;100035.00;;;;5036378;28;20185;-75
2022/11/04 01:21:27;;;;;;;2.00;1.90;;;9.50;99.90;9.60;100026.00;;;;5054201;28;20213;-75
2022/11/04 01:23:56;;;;;;;1.70;1.70;;;9.50;99.90;9.50;100039.00;;;;5052795;28;20203;-75
2022/11/04 01:26:24;;;;;;;1.73;1.73;;;9.50;99.90;9.50;100042.00;;;;5036226;28;20592;-75
2022/11/04 01:28:53;;;;;;;2.13;1.90;;;9.50;99.90;9.60;100016.00;;;;5036415;28;20258;-75
2022/11/04 01:31:22;;;;;;;1.80;1.80;;;9.50;99.90;9.90;100040.00;;;;5036221;28;20237;-75
2022/11/04 01:33:50;;;;;;;1.70;1.70;;;9.60;99.90;9.90;100041.00;;;;5036002;28;20184;-75
2022/11/04 01:36:18;;;;;;;1.70;1.70;;;9.70;99.90;9.70;100031.00;;;;5036187;28;20194;-75
2022/11/04 01:38:44;;;;;;;1.90;1.90;;;9.70;99.90;9.80;100035.00;;;;5035639;28;20245;-76
2022/11/04 01:41:32;;;;;;;1.67;1.67;;;9.70;99.90;9.90;100035.00;;;;5036190;28;20175;-76
2022/11/04 01:44:01;;;;;;;1.80;1.70;;;9.70;99.90;9.90;100039.00;;;;5035704;28;20634;-76
2022/11/04 01:46:51;;;;;;;1.70;1.70;;;9.80;99.90;10.40;100022.00;;;;5035724;28;20183;-76
2022/11/04 01:49:34;;;;;;;2.00;2.00;;;9.90;99.90;10.00;100016.00;;;;5035713;28;20166;-75
2022/11/04 01:52:21;;;;;;;4.47;2.63;;;9.90;99.90;10.10;100020.00;;;;5052243;28;20238;-76
2022/11/04 01:54:56;;;;;;;1.80;1.80;;;9.90;99.90;10.10;100027.00;;;;5035525;28;20283;-76
2022/11/04 01:57:33;;;;;;;2.00;2.00;;;9.90;99.90;10.20;100019.00;;;;5052647;28;20168;-76
2022/11/04 02:00:11;;;;;;;2.00;2.00;;;9.90;99.90;10.10;100002.00;;;;5035674;28;20172;-76
2022/11/04 02:02:54;;;;;;;2.00;2.00;;;9.90;99.90;10.00;100012.00;;;;5035603;28;20225;-75
2022/11/04 02:05:20;;;;;;;1.87;1.87;;;9.90;99.90;10.00;100019.00;;;;5035761;28;20177;-76
2022/11/04 02:07:52;;;;;;;1.80;1.80;;;9.80;99.90;10.00;100013.00;;;;5034973;28;20182;-76
2022/11/04 02:10:21;;;;;;;1.80;1.80;;;9.80;99.90;10.10;100014.00;;;;5035748;28;20196;-76
2022/11/04 02:12:50;;;;;;;1.70;1.70;;;9.80;99.90;10.00;100014.00;;;;5037447;28;20225;-76
2022/11/04 02:15:42;;;;;;;4.83;4.07;;;9.90;99.90;10.00;100022.00;;;;5054571;28;20191;-76
2022/11/04 02:18:27;;;;;;;1.77;1.77;;;9.80;99.90;10.20;100017.00;;;;5055269;28;20199;-76
2022/11/04 02:21:49;;;;;;;2.13;2.10;;;9.90;99.90;9.90;100020.00;;;;5073548;28;20230;-76
2022/11/04 02:24:30;;;;;;;1.50;1.50;;;9.90;99.90;10.20;100015.00;;;;5055038;28;20534;-76
2022/11/04 02:27:31;;;;;;;2.13;2.03;;;9.90;99.90;10.00;100018.00;;;;5073045;28;20176;-76
2022/11/04 02:30:17;;;;;;;1.60;1.60;;;9.90;99.90;9.80;99976.00;;;;5054873;28;20661;-75
2022/11/04 02:33:21;;;;;;;1.50;1.50;;;9.90;99.90;10.10;99977.00;;;;5055223;28;20209;-76
2022/11/04 02:36:01;;;;;;;1.70;1.60;;;9.90;99.90;9.80;100008.00;;;;5055273;28;20240;-75
2022/11/04 02:38:39;;;;;;;1.50;1.50;;;9.90;99.90;10.00;99972.00;;;;5072977;28;20184;-74
2022/11/04 02:41:52;;;;;;;1.67;1.67;;;9.90;99.90;10.10;100014.00;;;;5055579;28;20189;-73
2022/11/04 02:44:24;;;;;;;1.50;1.50;;;9.90;99.90;10.00;99976.00;;;;5055067;28;20168;-76
2022/11/04 02:47:15;;;;;;;1.40;1.40;;;9.90;99.90;9.90;100012.00;;;;5055294;28;20177;-76
2022/11/04 02:49:57;;;;;;;1.97;1.87;;;9.80;99.90;9.90;100003.00;;;;5071332;28;20188;-76
2022/11/04 02:52:41;;;;;;;1.60;1.60;;;9.80;99.90;10.20;100014.00;;;;5054908;28;20200;-74
2022/11/04 02:55:25;;;;;;;1.50;1.50;;;9.90;99.90;10.00;100019.00;;;;5073365;28;20203;-74
2022/11/04 02:57:56;;;;;;;1.63;1.63;;;9.80;99.90;9.90;100024.00;;;;5055262;28;20230;-74
2022/11/04 03:00:21;;;;;;;2.37;2.13;;;9.80;99.90;10.00;100009.00;;;;5055321;28;20756;-75
2022/11/04 03:02:57;;;;;;;1.50;1.50;;;9.90;99.90;9.80;100020.00;;;;5072765;28;20302;-74
2022/11/04 03:05:31;;;;;;;1.87;1.87;;;9.80;99.90;9.90;100015.00;;;;5055035;28;20224;-74
2022/11/04 03:08:04;;;;;;;1.60;1.60;;;9.80;99.90;9.70;99999.00;;;;5054580;28;20636;-74
2022/11/04 03:10:39;;;;;;;1.60;1.60;;;9.70;99.90;9.90;100006.00;;;;5054992;28;20518;-74
2022/11/04 03:13:21;;;;;;;1.60;1.60;;;9.70;99.90;9.90;100019.00;;;;5054796;28;20207;-75
2022/11/04 03:16:12;;;;;;;1.40;1.40;;;9.70;99.90;9.60;99987.00;;;;5054847;28;20210;-74
2022/11/04 03:19:09;;;;;;;1.80;1.80;;;9.70;99.90;9.60;100010.00;;;;5055505;28;20208;-74
2022/11/04 03:21:45;;;;;;;2.57;2.47;;;9.60;99.90;9.90;99998.00;;;;5076650;28;20189;-74
2022/11/04 03:24:11;;;;;;;1.97;1.87;;;9.70;99.90;9.70;99992.00;;;;5058285;28;20593;-74
2022/11/04 03:27:11;;;;;;;1.70;1.70;;;9.60;99.90;9.70;99950.00;;;;5064168;28;20239;-74
2022/11/04 03:30:04;;;;;;;1.50;1.50;;;9.60;99.90;9.50;100001.00;;;;5032837;28;20192;-74
2022/11/04 03:32:46;;;;;;;1.60;1.60;;;9.60;99.90;9.50;100012.00;;;;5054776;28;20569;-74
2022/11/04 03:35:14;;;;;;;1.60;1.60;;;9.50;99.90;9.70;99997.00;;;;5055125;28;20632;-74
2022/11/04 03:37:41;;;;;;;1.33;1.33;;;9.50;99.90;9.60;99982.00;;;;5038279;28;20193;-74
2022/11/04 03:40:11;;;;;;;1.63;1.63;;;9.50;99.90;9.60;99996.00;;;;5056270;28;20171;-74
2022/11/04 03:42:46;;;;;;;1.70;1.70;;;9.40;99.90;9.60;100002.00;;;;5055084;28;20192;-74
2022/11/04 03:45:13;;;;;;;1.83;1.83;;;9.40;99.90;9.80;99994.00;;;;5055112;28;20267;-74
2022/11/04 03:47:39;;;;;;;1.70;1.70;;;9.50;99.90;9.60;100003.00;;;;5038300;28;20577;-74
2022/11/04 03:50:27;;;;;;;2.37;2.30;;;9.40;99.90;9.70;99996.00;;;;5054387;28;20597;-74
2022/11/04 03:53:02;;;;;;;2.00;2.00;;;9.50;99.90;9.50;99995.00;;;;5054687;28;20654;-74
2022/11/04 03:55:43;;;;;;;1.90;1.90;;;9.40;99.90;9.60;100010.00;;;;5054842;28;20179;-74
2022/11/04 03:58:27;;;;;;;1.70;1.70;;;9.40;99.90;9.50;100017.00;;;;5056051;28;20172;-74
2022/11/04 04:01:07;;;;;;;2.10;2.10;;;9.30;99.90;9.70;100015.00;;;;5055794;28;20187;-72
2022/11/04 04:03:47;;;;;;;2.30;2.20;;;9.30;99.90;9.90;100018.00;;;;5054746;28;20175;-72
2022/11/04 04:06:19;;;;;;;1.90;1.90;;;9.40;99.90;9.80;100022.00;;;;5037634;28;20179;-72
2022/11/04 04:08:55;;;;;;;2.37;2.27;;;9.40;99.90;9.60;100017.00;;;;5037637;28;20270;-72
2022/11/04 04:12:10;;;;;;;2.00;2.00;;;9.50;99.90;9.50;100029.00;;;;5053949;28;20220;-73
2022/11/04 04:14:53;;;;;;;1.90;1.90;;;9.40;99.90;9.90;99983.00;;;;5026922;28;20226;-74
2022/11/04 04:17:28;;;;;;;2.20;2.20;;;9.50;99.90;10.10;100032.00;;;;5054171;28;20712;-74
2022/11/04 04:20:18;;;;;;;2.20;2.10;;;9.60;99.90;10.20;100027.00;;;;5055084;28;20176;-74
2022/11/04 04:27:29;;;;;;;3.60;3.50;;;9.60;99.90;9.90;100032.00;;;;5037105;28;20264;-72
2022/11/04 04:28:45;;;;;;;2.10;2.10;;;9.70;99.90;10.10;100034.00;;;;5054445;28;20642;-73
2022/11/04 04:31:57;;;;;;;2.00;2.00;;;9.70;99.90;10.10;100021.00;;;;5037110;28;20640;-73
2022/11/04 04:34:04;;;;;;;2.00;2.00;;;9.70;99.90;10.30;100037.00;;;;5040288;28;20246;-73
2022/11/04 04:36:50;;;;;;;2.50;2.50;;;9.80;99.90;10.30;100009.00;;;;5037581;28;20188;-73
2022/11/04 04:45:03;;;;;;;2.27;2.27;;;9.90;99.90;10.60;100040.00;;;;5040041;28;20234;-74
2022/11/04 04:47:44;;;;;;;13.20;3.17;;;10.00;99.90;10.30;100034.00;;;;5053826;28;20207;-74
2022/11/04 04:50:16;;;;;;;2.20;2.20;;;10.00;99.90;10.20;100025.00;;;;5053383;28;20168;-74
2022/11/04 04:52:47;;;;;;;1.83;1.83;;;9.80;99.90;10.30;100041.00;;;;5036830;28;20206;-74
2022/11/04 04:55:13;;;;;;;2.10;2.10;;;9.90;99.90;10.30;100038.00;;;;5036715;28;20239;-75
2022/11/04 04:57:46;;;;;;;2.00;2.00;;;9.90;99.90;10.30;100047.00;;;;5054138;28;20168;-75
2022/11/04 05:00:20;;;;;;;2.33;2.33;;;10.00;99.90;10.40;100046.00;;;;5053375;28;20306;-75
2022/11/04 05:02:47;;;;;;;1.80;1.80;;;10.10;99.90;10.50;100042.00;;;;5053245;28;20569;-75
2022/11/04 05:05:13;;;;;;;2.00;2.00;;;10.10;99.90;10.50;100055.00;;;;5053050;28;20181;-74
2022/11/04 05:07:42;;;;;;;7.80;7.50;;;10.00;99.90;10.60;100044.00;;;;5054844;28;20179;-75
2022/11/04 05:10:12;;;;;;;2.07;2.07;;;10.10;99.90;10.80;100063.00;;;;5036614;28;20273;-74
2022/11/04 05:15:25;;;;;;;2.00;2.00;;;10.20;99.90;10.80;100059.00;;;;5053410;28;20327;-75
2022/11/04 05:17:59;;;;;;;1.90;1.90;;;10.30;99.90;10.90;100063.00;;;;5053009;28;20590;-75
2022/11/04 05:20:27;;;;;;;1.80;1.80;;;10.30;99.90;10.90;100035.00;;;;5036552;28;20535;-74
2022/11/04 05:22:56;;;;;;;1.83;1.83;;;10.50;99.90;10.70;100055.00;;;;5052977;28;20266;-74
2022/11/04 05:25:22;;;;;;;1.70;1.70;;;10.30;99.90;10.60;100046.00;;;;5054797;28;20174;-74
2022/11/04 05:27:56;;;;;;;1.90;1.90;;;10.20;99.90;10.70;100065.00;;;;5052767;28;20752;-74
2022/11/04 05:30:24;;;;;;;1.80;1.80;;;10.20;99.90;10.80;100069.00;;;;5053453;28;20166;-74
2022/11/04 05:32:50;;;;;;;1.90;1.90;;;10.30;99.90;10.60;100075.00;;;;5052535;28;20566;-74
2022/11/04 05:35:16;;;;;;;1.80;1.80;;;10.30;99.90;10.40;100075.00;;;;5036301;28;20236;-74
2022/11/04 05:37:45;;;;;;;4.87;4.63;;;10.20;99.90;10.50;100069.00;;;;5049284;28;20190;-74
2022/11/04 05:40:11;;;;;;;2.43;2.23;;;10.20;99.90;10.50;100042.00;;;;5043992;28;20190;-74
2022/11/04 05:42:46;;;;;;;1.40;1.40;;;10.20;99.90;10.20;100083.00;;;;5052131;28;20182;-74
2022/11/04 05:45:46;;;;;;;1.60;1.60;;;10.20;99.90;10.60;100085.00;;;;5035956;28;20188;-74
2022/11/04 05:48:20;;;;;;;1.70;1.70;;;10.20;99.90;10.40;100104.00;;;;5035967;28;20185;-74
2022/11/04 05:50:46;;;;;;;1.60;1.60;;;10.20;99.90;10.80;100101.00;;;;5035705;28;20193;-74
2022/11/04 05:53:15;;;;;;;1.80;1.80;;;10.20;99.90;11.00;100100.00;;;;5053646;28;20200;-74
2022/11/04 05:55:43;;;;;;;1.73;1.73;;;10.50;99.90;10.60;100115.00;;;;5035991;28;20208;-74
2022/11/04 05:58:09;;;;;;;1.90;1.90;;;10.30;99.90;10.60;100125.00;;;;5053434;28;20179;-75
2022/11/04 06:00:36;;;;;;;1.80;1.80;;;10.30;99.90;10.90;100112.00;;;;5052160;28;20707;-74
2022/11/04 06:03:02;;;;;;;1.80;1.80;;;10.30;99.90;10.80;100126.00;;;;5052543;28;20200;-74
2022/11/04 06:05:28;;;;;;;1.97;1.97;;;10.30;99.90;10.90;100098.00;;;;5052196;28;20203;-74
2022/11/04 06:07:55;;;;;;;2.90;2.83;;;10.40;99.90;11.30;100139.00;;;;5035701;28;20261;-73
2022/11/04 06:10:21;;;;;;;2.00;2.00;;;10.50;99.90;11.80;100084.00;;;;5052275;28;20162;-74
2022/11/04 06:12:47;;;;;;;2.60;2.50;;;10.80;99.90;11.30;100138.00;;;;5052095;28;20208;-73
2022/11/04 06:15:14;;;;;;;2.87;2.77;;;10.80;99.90;11.20;100135.00;;;;5052526;28;20614;-73
2022/11/04 06:17:40;;;;;;;2.80;2.70;;;10.70;99.90;11.20;100132.00;;;;5035403;28;20181;-72
2022/11/04 06:20:09;;;;;;;3.20;3.10;;;10.60;99.90;11.30;100144.00;;;;5051864;28;20553;-72
2022/11/04 06:22:35;;;;;;;3.53;3.43;;;10.60;99.90;11.50;100130.00;;;;5035535;28;20189;-73
2022/11/04 06:25:01;;;;;;;3.80;3.70;;;10.70;99.90;11.20;100145.00;;;;5053080;28;20185;-71
2022/11/04 06:27:28;;;;;;;3.10;3.00;;;10.60;99.90;11.00;100152.00;;;;5035350;28;20186;-71
2022/11/04 06:29:59;;;;;;;3.80;3.70;;;10.60;99.90;11.20;100153.00;;;;5053130;28;20567;-70
2022/11/04 06:32:25;;;;;;;3.40;3.30;;;10.60;99.90;11.00;100150.00;;;;5051932;28;20212;-70
2022/11/04 06:34:56;;;;;;;3.30;3.20;;;10.50;99.90;11.20;100153.00;;;;5035275;28;20184;-70
2022/11/04 06:37:22;;;;;;;3.50;3.40;;;10.50;99.90;11.50;100124.00;;;;5035430;28;20614;-71
2022/11/04 06:39:51;;;;;;;3.50;3.40;;;10.70;99.90;11.20;100151.00;;;;5052160;28;20177;-71
2022/11/04 06:42:17;;;;;;;3.40;3.30;;;10.70;99.90;11.20;100166.00;;;;5051731;28;20649;-71
2022/11/04 06:44:46;;;;;;;3.40;3.30;;;10.70;99.90;11.70;100157.00;;;;5052808;28;20181;-72
2022/11/04 06:47:12;;;;;;;3.63;3.53;;;10.80;99.90;11.60;100164.00;;;;5051728;28;20169;-72
2022/11/04 06:49:38;;;;;;;3.37;3.27;;;10.80;99.90;11.60;100161.00;;;;5052018;28;20189;-73
2022/11/04 06:52:07;;;;;;;3.73;3.63;;;10.80;99.90;11.90;100140.00;;;;5051688;28;20217;-74
2022/11/04 06:54:33;;;;;;;3.53;3.43;;;10.90;99.90;11.60;100177.00;;;;5054582;28;20217;-74
2022/11/04 06:56:59;;;;;;;3.63;3.53;;;10.80;99.90;11.70;100175.00;;;;5055679;28;20622;-75
2022/11/04 06:59:25;;;;;;;3.90;3.80;;;10.80;99.90;11.60;100132.00;;;;5056719;28;20269;-74
2022/11/04 07:01:51;;;;;;;4.30;4.20;;;10.90;99.90;11.90;100184.00;;;;5055610;28;20678;-74
2022/11/04 07:04:21;;;;;;;4.80;4.70;;;10.90;99.90;11.80;100183.00;;;;5055624;28;20178;-73
2022/11/04 07:06:47;;;;;;;4.30;4.20;;;11.00;99.90;12.00;100177.00;;;;5055854;28;20205;-73
2022/11/04 07:09:21;;;;;;;4.97;4.87;;;11.10;99.90;11.80;100189.00;;;;5055320;28;20633;-73
2022/11/04 07:11:47;;;;;;;4.30;4.20;;;11.00;99.90;12.10;100183.00;;;;5056024;28;20190;-72
2022/11/04 07:14:13;;;;;;;4.50;4.40;;;11.20;99.90;12.20;100183.00;;;;5054971;28;20183;-72
2022/11/04 07:16:50;;;;;;;4.53;4.43;;;11.20;99.90;12.30;100191.00;;;;5056508;28;20576;-72
2022/11/04 07:19:31;;;;;;;4.93;4.83;;;11.30;99.90;12.20;100183.00;;;;5055147;28;20215;-72
2022/11/04 07:22:07;;;;;;;4.60;4.50;;;11.30;99.90;12.10;100196.00;;;;5055718;28;20197;-72
2022/11/04 07:24:33;;;;;;;4.33;4.23;;;11.30;99.90;12.50;100204.00;;;;5056422;28;20187;-73
2022/11/04 07:26:59;;;;;;;4.77;4.67;;;11.50;99.90;12.60;100206.00;;;;5055103;28;20610;-72
2022/11/04 07:29:29;;;;;;;4.37;4.27;;;11.60;99.90;12.40;100168.00;;;;5056343;28;20220;-73
2022/11/04 07:31:54;;;;;;;4.90;4.80;;;11.60;99.90;12.40;100209.00;;;;5056293;28;20681;-73
2022/11/04 07:34:20;;;;;;;4.40;4.30;;;11.50;99.90;12.40;100214.00;;;;5056179;28;20182;-73
2022/11/04 07:36:49;;;;;;;4.30;4.20;;;11.50;99.90;12.00;100219.00;;;;5055134;28;20186;-72
2022/11/04 07:39:18;;;;;;;3.83;3.73;;;11.40;99.90;11.40;100209.00;;;;5054965;28;20178;-72
2022/11/04 07:41:44;;;;;;;3.77;3.67;;;11.20;99.90;12.20;100226.00;;;;5054901;28;20239;-73
2022/11/04 07:44:13;;;;;;;3.80;3.70;;;11.30;99.90;11.80;100230.00;;;;5056012;28;20650;-74
2022/11/04 07:46:44;;;;;;;3.50;3.40;;;11.30;99.90;11.20;100222.00;;;;5055138;28;20193;-74
2022/11/04 07:49:24;;;;;;;3.30;3.20;;;11.10;99.90;11.70;100246.00;;;;5054705;28;20171;-73
2022/11/04 07:51:50;;;;;;;3.67;3.57;;;11.10;99.90;11.70;100201.00;;;;5056158;28;20244;-73
2022/11/04 07:54:24;;;;;;;4.40;4.27;;;11.30;99.90;11.60;100254.00;;;;5054543;28;20201;-73
2022/11/04 07:56:50;;;;;;;3.00;2.90;;;11.20;99.90;12.10;100252.00;;;;5054492;28;20155;-73
2022/11/04 07:59:16;;;;;;;3.47;3.37;;;11.40;99.90;12.40;100254.00;;;;5056250;28;20179;-72
2022/11/04 08:01:42;;;;;;;3.80;3.70;;;11.60;99.90;12.40;100262.00;;;;5055956;28;20178;-72
2022/11/04 08:04:08;;;;;;;4.20;4.10;;;11.60;99.90;12.30;100268.00;;;;5054954;28;20702;-73
2022/11/04 08:06:35;;;;;;;4.10;4.00;;;11.60;99.90;12.30;100264.00;;;;5054757;28;20178;-73
2022/11/04 08:09:04;;;;;;;4.70;4.60;;;11.60;99.90;12.30;100275.00;;;;5054581;28;20236;-73
2022/11/04 08:11:44;;;;;;;4.80;4.70;;;11.60;99.90;12.40;100268.00;;;;5054353;28;20660;-72
2022/11/04 08:14:13;;;;;;;4.40;4.30;;;11.60;99.90;13.10;100237.00;;;;5054305;28;20182;-74
2022/11/04 08:16:42;;;;;;;4.17;4.07;;;11.90;99.90;13.20;100280.00;;;;5054246;28;20270;-74
2022/11/04 08:19:11;;;;;;;4.17;4.07;;;12.10;99.90;13.40;100277.00;;;;5017654;28;20227;-74
2022/11/04 08:21:45;;;;;;;4.80;4.70;;;12.40;99.90;13.50;100272.00;;;;5033492;28;20312;-74
2022/11/04 08:24:17;;;;;;;5.00;4.90;;;12.60;99.90;13.10;100274.00;;;;5036926;28;20293;-74
2022/11/04 08:26:54;;;;;;;5.93;5.73;;;12.40;99.90;12.30;100282.00;;;;5036735;28;20186;-73
2022/11/04 08:29:25;;;;;;;5.00;4.90;;;12.00;99.90;12.40;100284.00;;;;5037534;28;20554;-73
2022/11/04 08:32:09;;;;;;;4.97;4.87;;;11.90;99.90;12.00;100243.00;;;;5037874;28;20208;-73
2022/11/04 08:34:40;;;;;;;4.80;4.70;;;11.60;99.90;12.60;100287.00;;;;5037633;28;20733;-74
2022/11/04 08:37:29;;;;;;;5.00;4.90;;;11.70;99.90;12.10;100296.00;;;;5020933;28;20216;-74
2022/11/04 08:39:58;;;;;;;4.30;4.20;;;11.70;99.90;12.60;100297.00;;;;5033702;28;20219;-74
2022/11/04 08:42:36;;;;;;;4.00;3.90;;;11.70;99.90;13.00;100301.00;;;;5017494;28;20550;-74
2022/11/04 08:45:13;;;;;;;4.50;4.40;;;12.10;99.90;13.40;100306.00;;;;5017220;28;20189;-74
2022/11/04 08:47:47;;;;;;;4.10;4.00;;;12.30;99.90;12.50;100277.00;;;;5017664;28;20262;-74
2022/11/04 08:50:26;;;;;;;4.47;4.37;;;12.30;99.90;12.80;100312.00;;;;5016689;28;20196;-74
2022/11/04 08:53:11;;;;;;;4.60;4.50;;;12.10;99.90;12.70;100268.00;;;;5033834;28;20204;-74
2022/11/04 08:56:14;;;;;;;4.40;4.30;;;12.20;99.90;13.10;100271.00;;;;5033292;28;20207;-74
2022/11/04 08:58:49;;;;;;;5.00;4.90;;;12.30;99.90;13.00;100287.00;;;;5032175;28;20213;-74
2022/11/04 09:01:36;;;;;;;4.00;3.90;;;12.40;99.90;13.30;100312.00;;;;5037129;28;20187;-75
2022/11/04 09:04:04;;;;;;;4.03;3.93;;;12.60;99.90;12.30;100325.00;;;;5035819;28;20226;-74
2022/11/04 09:06:35;;;;;;;3.63;3.53;;;12.30;99.90;12.40;100322.00;;;;5037029;28;20259;-74
2022/11/04 09:09:11;;;;;;;3.00;2.90;;;12.20;99.90;12.00;100293.00;;;;5036280;28;20236;-74
2022/11/04 09:12:00;;;;;;;2.73;2.63;;;11.90;99.90;12.40;100326.00;;;;5036987;28;20286;-74
2022/11/04 09:14:31;;;;;;;3.20;3.10;;;11.90;99.90;13.10;100351.00;;;;5005901;28;20188;-75
2022/11/04 09:16:57;;;;;;;3.90;3.80;;;12.30;99.90;13.50;100348.00;;;;5038359;28;20195;-75
2022/11/04 09:19:23;;;;;;;4.00;3.90;;;12.60;99.90;13.60;100355.00;;;;5044301;28;20193;-75
2022/11/04 09:22:00;;;;;;;4.60;4.50;;;12.80;99.90;13.60;100356.00;;;;5036565;28;20192;-75
2022/11/04 09:24:41;;;;;;;5.10;5.00;;;12.80;99.90;13.60;100353.00;;;;5045493;28;20282;-75
2022/11/04 09:27:15;;;;;;;5.70;5.50;;;12.90;99.90;13.30;100350.00;;;;5045607;28;20223;-75
2022/11/04 09:29:45;;;;;;;6.00;5.80;;;12.90;99.90;13.50;100345.00;;;;5045482;28;20239;-75
2022/11/04 09:32:11;;;;;;;5.80;5.60;;;12.70;99.90;14.10;100364.00;;;;5062927;28;20219;-75
2022/11/04 09:34:39;;;;;;;6.43;6.23;;;13.00;99.90;13.70;100349.00;;;;5044776;28;20697;-75
2022/11/04 09:37:08;;;;;;;5.40;5.30;;;13.00;99.90;13.90;100370.00;;;;5062579;28;20188;-75
2022/11/04 09:39:40;;;;;;;6.20;6.00;;;13.00;99.90;14.00;100366.00;;;;5045048;28;20658;-75
2022/11/04 09:42:45;;;;;;;6.50;6.30;;;13.10;99.90;14.00;100378.00;;;;5043665;28;20228;-74
2022/11/04 09:45:21;;;;;;;7.13;6.93;;;13.20;99.90;14.10;100335.00;;;;5044588;28;20678;-74
2022/11/04 09:47:59;;;;;;;5.53;5.37;;;13.30;99.90;14.00;100386.00;;;;5044836;28;20196;-74
2022/11/04 09:50:36;;;;;;;5.90;5.70;;;13.40;99.90;14.10;100407.00;;;;5043029;28;20337;-81
2022/11/04 09:53:21;;;;;;;5.40;5.30;;;13.40;99.90;14.50;100396.00;;;;5028170;28;20556;-70
2022/11/04 09:56:01;;;;;;;6.17;5.97;;;13.60;99.90;14.30;100407.00;;;;5044088;28;20202;-80
2022/11/04 09:58:36;;;;;;;6.20;6.00;;;13.60;99.90;14.50;100403.00;;;;5060307;28;20196;-80
2022/11/04 10:01:16;;;;;;;7.30;7.10;;;13.70;99.90;15.00;100419.00;;;;5043896;28;20197;-78
2022/11/04 10:04:13;;;;;;;6.03;5.83;;;13.90;99.90;15.30;100375.00;;;;5043828;28;20680;-81
2022/11/04 10:07:10;;;;;;;6.73;6.53;;;14.20;99.90;15.40;100432.00;;;;5060341;28;20198;-80
2022/11/04 10:09:50;;;;;;;6.90;6.70;;;14.30;99.90;15.30;100432.00;;;;5033326;28;20272;-71
2022/11/04 10:12:34;;;;;;;7.27;7.07;;;14.40;99.90;15.30;100444.00;;;;5033706;28;20197;-74
2022/11/04 10:15:47;;;;;;;6.83;6.63;;;14.50;99.90;15.50;100432.00;;;;5033350;28;20693;-73
2022/11/04 10:18:58;;;;;;;7.57;7.37;;;14.50;99.90;15.00;100450.00;;;;5048502;28;20190;-68
2022/11/04 10:33:52;;;;;;;3.17;3.07;;;13.20;99.90;13.60;100478.00;;;;5070437;28;20597;-72
2022/11/04 10:36:29;;;;;;;4.20;4.10;;;13.40;99.90;14.30;100478.00;;;;5032570;28;20243;-75
2022/11/04 10:39:08;;;;;;;6.37;6.10;;;13.60;99.90;14.60;100476.00;;;;5049302;28;20627;-70
2022/11/04 10:41:38;;;;;;;5.70;5.50;;;13.90;99.90;14.50;100475.00;;;;5049574;28;20175;-68
2022/11/04 10:44:23;;;;;;;5.80;5.60;;;13.90;99.90;14.90;100474.00;;;;5032372;28;20185;-67
2022/11/04 10:47:04;;;;;;;5.53;5.33;;;14.10;99.90;15.20;100483.00;;;;5048928;28;20649;-68
2022/11/04 10:50:18;;;;;;;5.57;5.43;;;14.40;99.90;15.30;100487.00;;;;5049123;28;20210;-70
2022/11/04 10:52:44;;;;;;;5.87;5.67;;;14.60;99.90;15.30;100493.00;;;;5041481;28;20244;-70
2022/11/04 10:55:40;;;;;;;7.00;6.80;;;14.60;99.90;15.30;100489.00;;;;5050142;28;20639;-71
2022/11/04 10:58:26;;;;;;;3.40;3.30;;;14.50;99.90;13.20;100482.00;;;;5048845;28;20199;-67
2022/11/04 11:00:53;;;;;;;3.10;3.00;;;13.70;99.90;14.40;100493.00;;;;5032641;28;20227;-63
2022/11/04 11:03:34;;;;;;;3.67;3.57;;;13.80;99.90;14.60;100495.00;;;;5048953;28;20275;-68
2022/11/04 11:06:25;;;;;;;3.50;3.40;;;14.00;99.90;14.90;100487.00;;;;5032114;28;20187;-64
2022/11/04 11:08:54;;;;;;;4.00;3.90;;;14.20;99.90;15.60;100498.00;;;;5049081;28;20171;-66
2022/11/04 11:11:48;;;;;;;4.30;4.20;;;14.60;99.90;15.20;100501.00;;;;5032145;28;20243;-70
2022/11/04 11:14:27;;;;;;;4.87;4.77;;;14.80;99.90;15.80;100472.00;;;;5048804;28;20180;-75
2022/11/04 11:16:55;;;;;;;4.60;4.50;;;15.00;99.90;16.20;100469.00;;;;5053876;28;20183;-72
2022/11/04 11:19:30;;;;;;;4.70;4.60;;;15.30;99.90;16.70;100511.00;;;;5048138;28;20245;-65
2022/11/04 11:21:57;;;;;;;4.67;4.57;;;15.70;99.90;16.60;100520.00;;;;5050010;28;20186;-65
2022/11/04 11:24:29;;;;;;;4.80;4.70;;;15.90;99.90;17.00;100515.00;;;;5048504;28;20184;-64
2022/11/04 11:27:11;;;;;;;4.80;4.70;;;16.20;99.90;16.60;100528.00;;;;5050290;28;20583;-64
2022/11/04 11:29:41;;;;;;;1.60;1.60;;;16.10;99.90;14.80;100518.00;;;;5048374;28;20196;-66
2022/11/04 11:32:31;;;;;;;1.50;1.50;;;15.00;99.90;14.90;100524.00;;;;5048238;28;20212;-63
2022/11/04 11:35:00;;;;;;;2.10;2.10;;;14.60;99.90;15.70;100524.00;;;;5048320;28;20196;-68
2022/11/04 11:37:29;;;;;;;2.50;2.47;;;14.80;99.90;16.00;100536.00;;;;5048404;28;20179;-67
2022/11/04 11:39:56;;;;;;;1.80;1.80;;;15.20;99.90;15.50;100527.00;;;;5048123;28;20194;-73
2022/11/04 11:42:24;;;;;;;2.30;2.30;;;15.00;99.90;16.10;100541.00;;;;5048473;28;20172;-70
2022/11/04 11:44:58;;;;;;;1.80;1.80;;;15.30;99.90;15.50;100544.00;;;;5034426;28;20183;-69
2022/11/04 11:47:41;;;;;;;8.17;5.07;;;15.40;99.90;15.40;100551.00;;;;5051323;28;20192;-69
2022/11/04 11:50:14;;;;;;;1.60;1.60;;;15.00;99.90;15.50;100547.00;;;;5034706;28;20176;-69
2022/11/04 11:52:48;;;;;;;1.63;1.63;;;14.90;99.90;15.70;100546.00;;;;5034965;28;20195;-74
2022/11/04 11:55:27;;;;;;;1.80;1.70;;;15.10;99.90;15.50;100561.00;;;;5051193;28;20216;-70
2022/11/04 11:58:21;;;;;;;1.50;1.50;;;14.90;99.90;15.60;100561.00;;;;5034732;28;20181;-70
2022/11/04 12:01:07;;;;;;;2.23;2.23;;;15.00;99.90;15.80;100564.00;;;;5034710;28;20202;-73
2022/11/04 12:04:04;;;;;;;1.80;1.80;;;15.10;99.90;16.10;100551.00;;;;5035352;28;20515;-71
2022/11/04 12:07:03;;;;;;;1.90;1.90;;;15.30;99.90;16.20;100567.00;;;;5035716;28;20193;-71